Date,TemperatureHighF,TemperatureAvgF,TemperatureLowF,DewpointHighF,DewpointAvgF,DewpointLowF,HumidityHigh,HumidityAvg,HumidityLow,PressureMaxIn,PressureMinIn,WindSpeedMaxMPH,WindSpeedAvgMPH,GustSpeedMaxMPH,PrecipitationSumIn
2013-1-1,47,44,40,42,34,26,96,71,52,30.10,29.91,5,1,10,0.20
2013-1-2,44,40,36,42,34,26,96,79,61,30.18,29.93,6,1,9,0.06
2013-1-3,42,36,33,32,27,21,80,70,60,30.26,30.16,4,0,5,0.00
2013-1-4,47,35,29,22,20,17,72,56,31,30.32,30.20,6,2,12,0.00
2013-1-5,50,40,31,25,22,20,66,50,31,30.39,30.23,6,1,10,0.00
2013-1-6,51,42,36,36,32,25,87,67,49,30.22,30.04,4,1,12,0.02
2013-1-7,50,40,32,32,28,26,76,62,43,30.44,30.18,6,1,7,0.00
2013-1-8,52,40,27,40,33,24,88,76,57,30.47,30.37,3,0,7,0.00
2013-1-9,62,51,41,52,46,38,92,80,68,30.43,30.34,6,1,13,0.00
2013-1-10,58,51,45,48,36,29,87,58,35,30.53,30.41,4,0,7,0.00
2013-1-11,49,42,39,48,39,33,98,89,60,30.41,30.14,5,0,7,0.04
2013-1-12,70,58,48,60,54,47,98,89,70,30.16,30.06,3,0,5,0.00
2013-1-13,70,61,53,61,57,53,99,87,69,30.09,29.99,7,2,12,0.00
2013-1-14,63,57,47,60,56,46,98,95,86,30.20,30.02,5,1,8,0.95
2013-1-15,47,41,38,46,40,37,97,97,96,30.25,30.10,4,1,8,0.89
2013-1-16,48,42,37,47,41,36,98,98,97,30.10,29.96,3,0,5,0.52
2013-1-17,48,40,32,47,39,31,98,96,93,30.17,29.96,6,1,11,1.18
2013-1-18,42,34,29,32,27,24,97,78,52,30.53,30.17,3,0,6,0.23
2013-1-19,52,38,29,30,26,24,83,63,38,30.49,30.15,7,2,13,0.03
2013-1-20,56,45,35,33,28,25,72,54,32,30.12,29.99,10,2,18,0.00
2013-1-21,55,41,30,31,22,8,80,51,27,30.07,29.87,16,3,20,0.00
2013-1-22,35,27,21,9,-1,-8,43,31,18,30.30,29.98,10,3,14,0.00
2013-1-23,35,27,17,16,7,-3,55,44,25,30.37,30.06,7,1,13,0.00
2013-1-24,34,28,20,21,9,0,64,45,30,30.53,29.99,9,2,16,0.00
2013-1-25,25,21,18,23,13,4,92,73,49,30.53,30.11,5,1,7,0.00
2013-1-26,36,30,24,28,24,21,92,77,63,30.44,30.11,3,1,5,0.01
2013-1-27,36,30,23,27,23,18,83,74,66,30.61,30.43,4,0,5,0.00
2013-1-28,53,41,32,42,36,27,93,81,63,30.48,30.20,8,2,15,0.00
2013-1-29,70,62,45,55,50,41,87,66,46,30.20,30.01,6,1,8,0.00
2013-1-30,69,64,53,62,59,51,95,85,70,30.01,29.33,19,3,23,0.45
2013-1-31,53,40,32,51,25,16,94,56,38,29.96,29.37,15,6,22,0.00
2013-2-1,35,28,20,29,9,1,86,46,29,30.39,29.84,19,4,19,0.00
2013-2-2,36,28,18,25,12,6,76,52,37,30.40,30.04,8,1,11,0.00
2013-2-3,44,36,32,28,24,19,83,63,44,30.04,29.85,14,2,17,0.00
2013-2-4,43,35,28,26,20,16,64,54,41,30.15,29.97,6,1,9,0.00
2013-2-5,57,45,36,36,30,25,68,57,39,29.98,29.87,8,2,13,0.00
2013-2-6,57,46,38,33,28,24,76,51,30,30.29,29.95,4,1,8,0.00
2013-2-7,40,37,33,34,30,25,94,78,58,30.36,30.09,5,1,8,0.27
2013-2-8,55,41,33,44,33,24,96,76,43,30.08,29.84,9,3,18,0.14
2013-2-9,51,40,32,24,17,11,60,42,21,30.35,30.06,9,2,12,0.00
2013-2-10,50,39,29,36,21,15,89,51,30,30.48,30.21,5,1,8,0.07
2013-2-11,54,46,37,51,43,34,98,90,53,30.20,29.91,7,2,13,0.11
2013-2-12,58,50,43,38,26,21,74,40,25,30.07,29.90,9,2,13,0.03
2013-2-13,45,42,37,43,40,32,97,90,75,29.94,29.62,11,1,12,0.23
2013-2-14,53,42,33,32,28,25,84,60,37,30.06,29.84,6,1,10,0.00
2013-2-15,59,45,32,38,32,28,87,63,34,30.08,29.90,6,2,12,0.02
2013-2-16,39,35,28,33,23,12,86,61,44,29.99,29.84,6,1,8,0.00
2013-2-17,33,27,22,16,7,2,70,44,30,30.28,29.93,9,3,22,0.00
2013-2-18,52,36,22,24,16,7,66,45,28,30.40,30.18,6,1,10,0.00
2013-2-19,47,40,35,41,28,11,95,67,27,30.19,29.84,10,3,18,0.07
2013-2-20,49,39,32,15,8,1,42,30,14,30.16,29.98,10,3,13,0.00
2013-2-21,55,40,28,19,14,12,54,38,19,30.27,30.11,4,1,11,0.00
2013-2-22,41,34,30,32,28,19,93,79,42,30.34,30.15,3,1,6,0.08
2013-2-23,48,40,33,43,37,32,95,90,82,30.16,29.82,3,0,4,0.09
2013-2-24,59,47,38,41,30,20,95,57,26,30.05,29.80,9,2,12,0.00
2013-2-25,41,36,31,23,22,21,72,58,48,30.22,30.05,4,0,8,0.00
2013-2-26,38,35,32,37,30,21,97,85,58,30.18,29.62,5,1,10,0.80
2013-2-27,55,45,37,40,36,31,97,74,45,29.78,29.63,10,2,15,0.05
2013-2-28,44,40,37,35,27,22,77,62,44,29.85,29.68,11,3,17,0.00
2013-3-1,41,39,36,27,26,23,67,60,53,29.92,29.83,7,2,10,0.00
2013-3-2,40,36,31,24,21,16,65,56,47,29.93,29.83,7,2,14,0.00
2013-3-3,36,32,27,20,17,13,63,55,46,29.99,29.90,12,3,15,0.00
2013-3-4,50,37,26,15,12,7,58,38,17,30.12,29.99,7,2,11,0.00
2013-3-5,50,41,35,41,29,15,95,65,39,30.07,29.60,4,1,6,0.58
2013-3-6,44,37,32,36,28,25,96,72,54,30.08,29.59,10,3,20,0.13
2013-3-7,45,39,32,29,26,23,72,62,48,30.26,30.07,9,2,14,0.00
2013-3-8,53,42,32,26,24,21,72,52,31,30.32,30.20,7,2,11,0.00
2013-3-9,62,46,30,30,27,24,78,50,28,30.36,30.23,5,1,8,0.00
2013-3-10,66,51,35,36,30,26,74,47,28,30.31,30.17,5,1,9,0.00
2013-3-11,62,53,43,52,38,24,83,58,36,30.19,29.87,7,1,14,0.01
2013-3-12,60,54,42,56,43,28,97,71,35,29.96,29.70,8,3,10,0.66
2013-3-13,48,40,32,30,25,16,75,54,40,30.16,29.96,13,3,16,0.00
2013-3-14,49,38,29,17,15,12,57,41,23,30.24,30.14,10,4,16,0.00
2013-3-15,61,47,33,35,25,15,54,43,34,30.18,29.87,11,2,15,0.00
2013-3-16,77,58,44,48,40,35,71,54,35,29.87,29.59,11,2,15,0.00
2013-3-29,49,48,46,26,25,24,46,41,38,30.21,30.20,0,0,0,0.00
2013-3-30,48,42,38,31,28,26,67,58,48,30.25,30.19,2,0,4,0.00
2013-3-31,61,59,56,52,50,49,79,73,69,29.83,29.79,6,3,13,0.22
2013-4-1,64,55,45,49,40,29,87,60,38,29.98,29.82,10,3,18,0.00
2013-4-2,56,46,34,29,20,11,70,41,18,30.17,29.99,5,2,14,0.00
2013-4-3,56,45,34,18,14,10,50,30,17,30.33,30.16,7,1,11,0.00
2013-4-4,44,37,33,32,22,10,95,59,25,30.39,30.01,5,1,8,0.79
2013-4-5,63,48,33,44,35,30,97,66,32,30.05,29.93,7,2,13,0.28
2013-4-6,63,52,40,31,29,27,68,44,28,30.27,30.05,8,1,8,0.00
2013-4-7,70,57,41,45,39,29,81,54,38,30.24,30.07,8,2,16,0.00
2013-4-8,77,65,52,52,48,43,82,56,37,30.12,30.00,7,2,14,0.00
2013-4-9,83,72,58,55,52,50,75,51,33,30.14,30.01,7,1,12,0.00
2013-4-10,86,76,64,59,55,52,70,51,32,30.05,29.88,8,2,13,0.00
2013-4-11,80,72,63,63,58,55,82,63,44,29.91,29.71,7,2,13,0.00
2013-4-12,80,69,60,64,55,37,97,67,30,29.74,29.57,10,3,19,0.86
2013-4-13,74,63,49,40,34,27,61,37,20,29.99,29.75,9,2,11,0.00
2013-4-14,79,65,48,45,36,29,63,37,21,30.09,29.98,6,1,10,0.00
2013-4-15,66,58,52,56,53,46,95,84,48,30.23,30.02,3,0,14,0.15
2013-4-16,77,65,58,60,57,54,95,77,52,30.30,30.15,5,1,9,0.00
2013-4-17,78,68,60,63,59,56,88,73,55,30.20,30.09,4,1,5,0.00
2013-4-18,77,69,62,61,59,55,92,71,48,30.14,29.97,5,1,13,0.00
2013-4-19,75,66,55,66,61,44,94,83,64,29.97,29.64,8,3,23,0.24
2013-4-20,61,52,43,44,31,26,68,46,26,30.29,29.83,8,2,13,0.00
2013-4-21,59,49,41,36,32,27,70,53,39,30.52,30.29,6,1,10,0.00
2013-4-22,61,49,36,38,31,21,89,55,22,30.49,30.29,8,1,9,0.00
2013-4-23,67,56,46,49,44,37,82,65,47,30.32,30.10,4,0,7,0.00
2013-4-24,72,62,51,56,53,49,93,73,54,30.12,29.92,10,2,18,0.00
2013-4-25,68,56,44,52,34,24,75,47,20,30.29,30.03,5,1,8,0.00
2013-4-26,68,56,42,40,34,30,72,45,27,30.45,30.30,5,1,8,0.00
2013-4-27,67,58,52,53,46,38,91,65,49,30.36,30.25,2,0,6,0.02
2013-4-28,55,53,51,53,52,50,98,95,92,30.25,30.06,3,0,7,0.49
2013-4-29,64,56,51,58,54,50,98,92,77,30.08,29.98,2,0,5,0.24
2013-4-30,66,59,54,57,55,53,96,86,70,30.20,30.02,2,0,6,0.00
2013-5-1,67,59,54,55,53,49,95,80,59,30.34,30.20,6,1,8,0.00
2013-5-2,62,57,53,55,50,43,93,80,62,30.35,30.27,3,0,6,0.00
2013-5-3,66,56,47,51,48,42,95,75,53,30.30,30.18,5,0,8,0.00
2013-5-4,60,52,46,49,44,41,85,77,60,30.23,30.12,4,1,12,0.00
2013-5-5,54,51,46,52,45,35,95,81,65,30.14,30.01,4,1,9,0.01
2013-5-6,59,55,52,59,54,51,98,96,92,30.03,29.84,5,1,10,0.50
2013-5-7,66,56,52,57,54,51,99,92,59,29.95,29.85,4,0,10,0.14
2013-5-8,59,53,49,58,53,49,99,98,94,30.01,29.92,1,0,4,0.23
2013-5-9,79,63,48,60,54,48,99,75,39,30.07,29.98,4,1,7,0.01
2013-5-10,81,70,56,60,57,53,91,66,45,30.05,29.90,6,1,12,0.00
2013-5-11,77,70,64,62,60,57,89,73,52,29.91,29.75,9,1,9,0.00
2013-5-12,65,59,49,61,41,31,90,53,31,30.04,29.79,7,1,10,0.00
2013-5-13,62,52,41,38,32,27,85,52,27,30.19,30.04,4,0,9,0.00
2013-5-14,68,55,39,44,39,34,88,58,36,30.25,30.03,7,1,11,0.00
2013-5-15,87,69,53,64,54,44,77,61,34,30.04,29.85,3,1,10,0.00
2013-5-16,82,73,64,61,58,54,74,59,42,29.97,29.87,4,0,7,0.00
2013-5-17,82,72,63,65,60,55,84,67,45,30.08,29.95,2,0,6,0.00
2013-5-18,68,65,62,65,63,60,97,91,82,30.15,30.06,2,0,5,0.05
2013-5-19,70,66,62,69,65,61,99,97,92,30.12,30.03,6,0,6,0.55
2013-5-20,76,68,65,69,66,63,99,93,76,30.09,30.00,2,0,8,0.05
2013-5-21,85,73,65,71,67,65,99,83,57,30.03,29.90,4,1,7,0.00
2013-5-22,82,71,64,70,66,63,97,84,63,29.98,29.85,8,1,13,0.48
2013-5-23,75,66,62,68,64,61,98,94,78,29.92,29.78,4,0,7,0.37
2013-5-24,63,59,51,61,48,36,98,70,39,30.19,29.82,5,1,10,0.01
2013-5-25,70,57,46,40,34,26,80,46,25,30.27,30.15,4,1,9,0.00
2013-5-26,74,62,51,47,42,37,75,50,30,30.26,30.15,4,0,7,0.00
2013-5-27,77,64,52,58,51,44,82,63,49,30.28,30.13,3,0,8,0.00
2013-5-28,83,72,62,67,62,55,92,72,51,30.20,30.10,6,1,10,0.00
2013-5-29,84,74,65,65,63,61,86,69,49,30.20,30.11,5,1,10,0.00
2013-5-30,83,74,64,66,63,61,92,71,48,30.23,30.14,6,1,9,0.00
2013-5-31,84,74,65,68,64,61,89,71,53,30.18,30.06,5,1,8,0.00
2013-6-1,86,76,67,69,65,62,94,70,46,30.08,29.97,6,1,11,0.00
2013-6-2,79,71,67,70,66,63,98,85,69,29.98,29.89,5,1,12,0.48
2013-6-3,81,71,66,69,66,63,98,86,60,29.95,29.83,3,0,5,0.29
2013-6-4,74,68,61,65,62,58,91,82,71,30.09,29.94,2,0,7,0.00
2013-6-5,73,66,61,64,62,58,94,86,69,30.13,30.01,3,0,6,0.00
2013-6-6,67,64,61,67,63,60,99,97,90,30.02,29.81,2,0,3,0.28
2013-6-7,72,68,65,70,67,64,99,97,92,29.83,29.61,2,0,4,0.10
2013-6-8,80,70,61,66,62,59,97,79,54,30.08,29.80,3,0,5,0.11
2013-6-9,84,73,65,71,67,63,97,83,55,30.14,30.02,4,0,12,0.44
2013-6-10,80,71,68,73,69,67,99,93,75,30.07,29.83,11,1,12,0.55
2013-6-11,82,73,65,67,64,62,97,75,52,29.94,29.86,8,1,8,0.01
2013-6-12,89,78,65,76,69,62,92,75,54,29.95,29.83,4,0,7,0.00
2013-6-13,91,77,69,74,69,58,93,77,50,29.83,29.57,5,1,16,0.24
2013-6-14,75,68,62,60,57,55,83,68,52,30.01,29.73,7,0,7,0.00
2013-6-15,80,70,58,62,59,55,92,68,46,30.12,30.01,3,0,7,0.00
2013-6-16,84,75,66,69,65,61,85,72,58,30.07,29.96,4,1,8,0.00
2013-6-17,82,75,69,71,68,66,93,79,65,30.00,29.89,3,0,7,0.00
2013-6-18,77,71,66,71,68,65,98,92,80,29.93,29.77,2,0,7,0.43
2013-6-19,78,70,62,68,64,61,97,84,64,30.12,29.89,3,0,7,0.00
2013-6-20,78,70,65,67,65,63,95,84,66,30.25,30.13,7,0,7,0.00
2013-6-21,81,70,60,64,60,55,92,72,54,30.27,30.19,0,0,1,0.00
2013-6-22,81,71,63,70,65,57,96,81,62,30.24,30.11,0,0,0,0.00
2013-6-23,86,76,67,70,68,64,97,78,50,30.19,30.08,3,0,7,0.00
2013-6-24,86,76,68,72,70,67,97,81,61,30.17,30.04,4,1,9,0.00
2013-6-25,86,76,69,73,69,66,95,80,52,30.08,29.96,3,0,6,0.09
2013-6-26,88,74,67,74,69,67,97,87,61,29.98,29.86,4,0,10,0.71
2013-6-27,83,74,67,73,69,66,98,86,70,29.91,29.69,4,1,8,0.02
2013-6-28,90,78,71,71,69,65,89,75,45,29.72,29.53,5,1,12,0.08
2013-6-29,84,75,67,70,67,65,95,77,56,29.69,29.56,5,1,7,0.00
2013-6-30,83,74,69,72,69,63,96,84,67,29.83,29.67,5,0,10,0.01
2013-7-1,81,73,68,71,69,67,98,88,65,29.96,29.81,4,0,8,0.07
2013-7-2,76,72,70,72,70,69,97,93,86,30.16,29.95,3,1,12,0.19
2013-7-3,75,72,70,73,71,69,99,97,93,30.22,30.11,3,0,8,0.56
2013-7-4,83,74,70,75,72,70,99,93,70,30.24,30.16,5,1,9,0.46
2013-7-5,84,75,70,75,72,69,98,89,66,30.24,30.15,4,1,12,0.07
2013-7-6,84,76,70,73,70,69,98,86,63,30.23,30.10,6,0,8,0.17
2013-7-7,83,73,69,76,71,67,98,93,72,30.16,30.05,9,1,10,0.38
2013-7-8,83,74,68,72,69,68,99,86,62,30.16,30.07,4,0,6,1.08
2013-7-9,86,78,71,75,72,70,96,83,63,30.13,30.02,4,0,6,0.00
2013-7-10,84,76,70,76,72,69,96,87,70,30.05,29.90,6,0,12,0.00
2013-7-11,80,74,70,75,71,69,98,92,77,29.93,29.85,2,0,5,0.09
2013-7-12,74,70,67,69,67,65,97,89,75,30.04,29.86,2,0,7,0.00
2013-7-13,76,71,67,72,69,65,98,93,85,30.17,30.03,1,0,5,0.03
2013-7-14,86,76,70,73,71,70,98,84,62,30.30,30.17,4,0,9,0.03
2013-7-15,87,78,70,73,71,69,98,81,57,30.32,30.23,4,0,5,0.00
2013-7-16,93,80,69,74,70,67,95,74,45,30.27,30.17,2,0,7,0.00
2013-7-17,91,79,74,77,73,70,97,82,57,30.21,30.10,4,0,7,0.39
2013-7-18,90,80,71,75,72,68,97,79,50,30.14,30.01,3,0,5,0.01
2013-7-19,88,79,74,75,74,72,94,84,64,30.06,29.99,6,1,7,0.00
2013-7-24,86,81,75,71,67,63,83,64,49,29.84,29.74,2,0,6,0.00
2013-7-25,78,71,64,69,64,61,97,80,60,30.03,29.85,3,0,8,0.16
2013-7-26,80,72,65,68,65,62,93,79,62,30.10,30.00,3,0,7,0.00
2013-7-27,71,69,68,69,68,65,98,94,88,30.03,29.91,3,0,4,0.44
2013-7-28,82,72,67,71,68,66,98,89,63,29.98,29.89,3,0,7,0.17
2013-7-29,80,71,63,67,62,56,98,76,48,30.17,29.98,2,0,6,0.00
2013-7-30,80,70,59,67,62,57,93,76,53,30.23,30.13,3,0,5,0.00
2013-7-31,75,71,67,69,67,66,97,88,76,30.14,29.98,2,0,5,0.01
2013-8-1,82,73,66,72,68,66,99,85,64,29.99,29.84,2,0,5,0.17
2013-8-2,83,74,65,69,66,63,93,76,55,30.01,29.91,3,0,6,0.00
2013-8-3,86,76,68,73,68,64,93,78,49,30.00,29.89,3,0,8,0.00
2013-8-4,83,75,69,71,65,60,96,74,48,30.02,29.90,2,0,6,0.01
2013-8-5,77,70,63,68,62,58,95,77,63,30.09,29.98,4,0,6,0.07
2013-8-6,78,72,65,70,68,63,97,87,76,30.04,29.96,4,1,10,0.01
2013-8-7,79,73,68,72,69,66,94,88,76,30.07,30.00,5,1,8,0.00
2013-8-8,82,74,70,75,71,68,97,89,77,30.05,29.98,5,0,9,0.08
2013-8-9,87,77,72,76,73,71,97,87,67,30.01,29.93,4,1,7,0.04
2013-8-10,86,76,72,76,72,70,95,87,68,30.06,30.00,4,0,7,0.05
2013-8-11,84,75,70,76,72,69,99,92,71,30.10,30.00,2,0,6,0.27
2013-8-12,88,77,70,74,71,69,99,83,56,30.04,29.92,5,0,7,0.50
2013-8-13,83,73,67,74,70,67,98,92,75,29.93,29.78,2,0,6,0.52
2013-8-14,74,69,63,67,60,54,89,73,51,30.09,29.84,4,0,7,0.00
2013-8-15,73,65,57,59,56,53,93,74,49,30.17,30.09,3,0,7,0.00
2013-8-16,70,63,55,61,58,53,94,83,68,30.19,30.11,3,0,5,0.00
2013-8-17,64,61,57,63,59,56,98,94,83,30.23,30.16,3,0,5,0.47
2013-8-18,71,66,62,66,64,62,99,94,83,30.23,30.14,2,0,5,0.57
2013-8-19,73,67,63,70,66,63,99,96,86,30.20,30.08,4,0,5,0.43
2013-8-20,81,71,64,72,68,64,99,90,68,30.18,30.10,3,0,6,0.00
2013-8-21,81,74,67,74,71,67,98,90,75,30.21,30.08,3,0,5,0.01
2013-8-22,85,74,65,73,68,64,96,82,60,30.12,29.98,2,0,9,0.00
2013-8-23,82,71,62,72,68,62,98,90,68,30.11,29.92,2,0,13,0.87
2013-8-24,80,68,60,63,60,57,98,77,46,30.31,30.11,3,0,8,0.00
2013-8-25,77,67,58,65,60,57,96,80,55,30.39,30.28,4,0,6,0.00
2013-8-26,82,69,57,66,61,56,97,77,47,30.32,30.09,3,0,4,0.00
2013-8-27,86,75,64,72,68,63,94,79,60,30.10,29.95,3,0,6,0.00
2013-8-28,83,76,70,76,72,68,94,86,75,29.98,29.84,3,0,7,0.00
2013-8-29,84,76,71,74,71,69,92,84,70,30.00,29.83,3,0,5,0.00
2013-8-30,83,74,68,71,69,67,97,84,65,30.05,29.91,4,0,7,0.00
2013-8-31,86,75,69,75,70,66,97,85,66,29.93,29.81,5,1,11,0.09
2013-9-1,84,73,66,75,70,66,99,89,70,29.87,29.77,5,0,7,0.00
2013-9-2,87,76,68,73,70,67,97,80,52,29.87,29.77,3,0,5,0.00
2013-9-3,87,77,69,72,68,63,95,77,52,29.94,29.77,3,0,5,0.00
2013-9-4,81,71,61,65,62,58,91,75,51,30.09,29.95,4,0,7,0.00
2013-9-5,85,72,61,65,61,58,92,72,45,30.11,30.02,2,0,6,0.00
2013-9-6,75,68,62,62,58,54,89,72,54,30.20,30.10,3,0,7,0.00
2013-9-7,79,68,58,66,62,55,93,81,62,30.13,29.96,4,0,9,0.00
2013-9-8,84,73,63,71,66,60,93,78,55,29.98,29.90,3,0,5,0.00
2013-9-9,80,73,67,71,68,66,96,86,71,30.14,29.98,3,0,6,0.00
2013-9-10,86,76,66,73,69,65,98,82,61,30.21,30.12,3,0,8,0.00
2013-9-11,86,76,68,74,71,67,96,84,62,30.17,30.04,3,0,6,0.00
2013-9-12,86,76,68,73,70,67,96,83,63,30.04,29.79,4,0,7,0.00
2013-9-13,78,71,60,66,57,49,90,65,39,29.92,29.75,6,1,9,0.00
2013-9-14,73,62,52,55,51,48,91,69,45,30.14,29.92,3,0,6,0.00
2013-9-15,76,63,50,61,55,48,93,76,55,30.25,30.11,4,0,8,0.00
2013-9-16,76,68,60,65,61,57,94,79,64,30.21,30.07,2,0,5,0.00
2013-9-17,70,61,53,58,54,51,94,77,51,30.36,30.21,3,0,6,0.00
2013-9-18,67,60,53,58,53,49,89,79,64,30.32,30.19,3,0,5,0.00
2013-9-19,72,65,60,64,60,56,93,84,70,30.19,30.07,2,0,7,0.00
2013-9-20,67,65,64,66,64,63,98,97,91,30.07,29.95,1,0,4,0.55
2013-9-21,69,65,60,69,65,60,99,98,96,29.95,29.70,4,0,6,0.74
2013-9-22,73,63,54,60,57,54,99,83,53,29.91,29.74,3,0,5,0.01
2013-9-23,68,61,55,58,53,48,93,78,61,30.08,29.92,3,0,7,0.00
2013-9-24,74,63,54,62,57,52,95,82,64,30.10,29.94,2,0,5,0.00
2013-9-25,65,61,54,63,59,53,98,94,88,29.95,29.88,1,0,3,0.02
2013-9-26,73,64,57,61,57,50,99,81,46,30.05,29.90,2,0,7,0.01
2013-9-27,72,62,53,58,54,51,95,79,55,30.20,30.06,4,0,6,0.00
2013-9-28,67,60,55,56,54,51,94,82,63,30.28,30.20,4,0,7,0.00
2013-9-29,69,59,51,56,53,50,95,81,58,30.20,30.06,4,0,6,0.00
2013-9-30,74,62,52,59,54,51,95,78,50,30.10,29.99,4,0,5,0.00
2013-10-1,80,66,55,63,58,54,96,78,47,30.11,30.02,2,0,4,0.00
2013-10-2,81,68,57,64,60,55,93,76,49,30.14,30.04,3,0,5,0.00
2013-10-3,82,69,59,65,62,57,95,79,52,30.12,30.04,3,0,6,0.00
2013-10-4,84,71,61,67,63,59,96,79,50,30.12,30.04,4,0,7,0.00
2013-10-5,86,73,64,68,64,61,94,76,49,30.10,30.01,3,0,5,0.00
2013-10-6,81,71,63,66,64,62,96,80,57,30.03,29.89,7,1,9,0.00
2013-10-7,70,66,55,69,62,50,98,88,73,30.04,29.77,5,1,8,1.02
2013-10-8,64,57,50,50,47,45,86,71,52,30.25,30.03,4,0,9,0.00
2013-10-9,65,56,50,53,49,46,90,76,58,30.26,30.16,5,0,10,0.00
2013-10-10,67,58,51,60,55,48,97,88,77,30.16,29.97,3,0,5,0.30
2013-10-11,71,65,60,63,59,56,87,81,70,29.97,29.91,2,0,5,0.00
2013-10-12,66,63,61,63,60,57,96,90,82,30.11,29.96,1,0,5,0.00
2013-10-13,63,61,59,62,60,57,97,94,89,30.25,30.10,3,0,7,0.00
2013-10-14,66,59,54,60,57,53,98,93,79,30.28,30.19,3,0,5,0.05
2013-10-15,68,59,52,57,54,51,98,85,59,30.23,30.08,3,0,5,0.00
2013-10-16,71,63,58,61,58,55,92,82,66,30.10,29.93,3,0,5,0.00
2013-10-17,65,63,59,63,61,58,96,93,86,29.95,29.81,3,0,7,0.02
2013-10-18,67,57,47,58,49,44,92,76,55,30.06,29.89,2,0,4,0.00
2013-10-19,59,55,51,57,53,50,97,94,90,29.99,29.82,2,0,4,0.00
2013-10-20,62,51,43,50,40,35,94,68,41,30.12,29.93,3,0,7,0.00
2013-10-21,66,52,39,50,45,38,96,79,56,30.18,29.99,5,1,8,0.00
2013-10-22,68,59,52,54,51,48,91,76,49,29.99,29.79,8,0,8,0.00
2013-10-23,61,53,41,51,42,33,95,70,37,30.01,29.69,8,1,12,0.00
2013-10-24,53,43,35,34,32,30,86,67,43,30.20,30.02,4,1,11,0.00
2013-10-25,52,41,34,34,30,26,89,66,40,30.38,30.20,4,0,8,0.00
2013-10-26,56,43,30,35,30,27,90,64,40,30.37,30.07,5,1,11,0.00
2013-10-27,66,53,42,42,38,34,82,60,38,30.13,30.03,4,1,7,0.00
2013-10-28,65,54,44,54,48,40,91,81,60,30.26,30.11,1,0,5,0.00
2013-10-29,68,60,54,54,53,51,95,79,58,30.35,30.25,4,0,5,0.00
2013-10-30,73,62,54,59,55,52,95,80,62,30.28,30.14,3,0,7,0.01
2013-10-31,68,64,59,61,57,56,89,79,68,30.16,29.82,11,1,13,0.00
2013-11-1,70,65,56,63,61,55,96,85,75,29.82,29.61,8,2,17,0.07
2013-11-2,66,56,47,55,42,34,98,66,31,29.96,29.67,5,1,10,0.01
2013-11-3,60,50,42,38,35,32,75,58,36,30.39,29.96,4,0,9,0.00
2013-11-4,51,43,36,34,29,26,82,59,42,30.59,30.39,3,0,8,0.00
2013-11-5,55,46,36,43,35,27,82,68,58,30.61,30.47,3,0,5,0.00
2013-11-6,69,56,48,52,48,43,87,76,53,30.47,30.11,4,0,9,0.00
2013-11-7,63,55,44,55,45,29,91,70,47,30.14,29.95,4,1,11,0.00
2013-11-8,53,43,34,30,26,23,78,54,31,30.35,30.14,5,1,11,0.00
2013-11-9,52,43,30,30,28,25,87,57,37,30.39,30.17,6,1,8,0.00
2013-11-10,68,54,44,38,29,20,58,40,17,30.27,30.07,9,2,13,0.00
2013-11-11,59,46,34,28,26,24,71,48,27,30.35,30.12,5,1,7,0.00
2013-11-12,55,44,29,37,25,13,55,47,41,30.46,30.03,4,1,13,0.00
2013-11-13,47,35,27,18,16,12,67,48,26,30.57,30.44,5,1,9,0.00
2013-11-14,60,42,27,20,17,13,68,40,18,30.48,30.32,4,1,7,0.00
2013-11-15,58,48,36,46,31,20,94,54,33,30.33,30.21,5,1,7,0.05
2013-11-16,55,51,48,53,50,46,98,96,93,30.29,30.22,1,0,3,0.02
2013-11-17,60,56,53,60,56,52,99,98,94,30.23,29.84,3,0,6,0.08
2013-11-18,67,59,50,60,43,26,99,60,27,29.99,29.80,9,2,14,0.08
2013-11-19,52,45,37,29,26,23,66,48,35,30.34,29.99,8,1,10,0.00
2013-11-20,49,41,34,32,26,24,70,56,41,30.51,30.34,7,1,10,0.00
2013-11-21,50,45,40,42,37,29,79,74,67,30.54,30.42,2,0,4,0.00
2013-11-22,61,55,47,56,51,41,90,84,78,30.42,30.07,7,2,15,0.00
2013-11-23,58,50,36,55,35,15,90,58,33,30.23,30.07,10,2,13,0.00
2013-11-24,36,29,24,15,6,0,49,38,23,30.57,30.23,9,2,13,0.00
2013-11-25,37,29,20,13,9,6,68,44,30,30.59,30.39,4,1,6,0.00
2013-11-26,43,35,31,42,33,15,98,90,45,30.39,29.63,5,1,7,2.53
2013-11-27,44,35,26,43,28,12,98,74,53,30.19,29.54,10,3,19,0.18
2013-11-28,42,32,23,18,16,12,73,55,36,30.49,30.18,5,1,7,0.00
2013-11-29,46,36,26,24,21,17,83,56,39,30.67,30.48,6,1,7,0.00
2013-11-30,43,33,24,23,22,20,84,64,40,30.70,30.40,4,0,6,0.00
2013-12-1,56,38,23,30,26,20,88,64,37,30.40,30.04,4,0,5,0.00
2013-12-2,54,44,30,38,33,27,87,69,51,30.04,29.85,3,0,5,0.00
2013-12-3,55,47,38,46,41,35,89,79,66,29.99,29.87,2,0,4,0.00
2013-12-4,61,53,48,55,51,46,97,92,76,30.08,29.98,4,0,7,0.00
2013-12-5,64,60,56,62,60,55,99,98,93,30.09,29.98,6,1,10,0.01
2013-12-6,74,68,58,65,63,56,98,84,67,30.01,29.89,9,2,16,0.15
2013-12-7,58,46,39,57,40,33,96,82,64,30.48,29.98,4,1,9,0.14
2013-12-8,38,32,30,32,30,28,95,90,76,30.49,30.31,5,1,7,0.35
2013-12-9,42,36,31,40,35,30,98,96,94,30.30,30.08,2,0,4,0.38
2013-12-10,46,38,30,41,32,19,98,80,53,30.31,29.97,8,1,16,0.30
2013-12-11,49,36,27,23,21,18,77,56,34,30.45,30.30,6,1,7,0.00
2013-12-12,41,34,29,21,14,5,66,46,24,30.43,30.31,6,1,12,0.00
2013-12-13,49,37,27,22,17,9,62,45,29,30.39,30.27,5,1,9,0.00
2013-12-14,40,36,34,34,30,21,97,81,47,30.30,29.80,3,0,6,0.46
2013-12-15,45,38,32,37,31,26,98,77,54,30.07,29.73,9,2,15,0.00
2013-12-16,51,39,31,33,29,26,84,70,47,30.17,30.05,2,0,6,0.00
2013-12-17,59,44,33,40,34,28,89,69,41,30.12,29.88,8,1,14,0.00
2013-12-18,47,39,31,27,18,13,63,46,26,30.28,30.04,8,2,13,0.00
2013-12-19,61,46,32,26,22,16,57,39,24,30.29,30.19,7,1,10,0.00
2013-12-20,60,52,46,47,36,26,80,54,41,30.20,30.09,6,2,11,0.00
2013-12-21,66,58,50,62,54,47,91,84,75,30.11,29.95,6,1,12,0.00
2013-12-22,70,63,58,65,61,58,98,92,83,30.04,29.93,11,2,16,0.85
2013-12-23,62,54,37,61,50,29,99,87,71,30.18,29.94,6,2,15,0.68
2013-12-24,41,33,25,29,21,10,83,61,39,30.50,30.18,7,2,14,0.00
2013-12-25,37,27,19,13,11,8,76,52,33,30.58,30.41,4,1,7,0.00
2013-12-26,51,35,25,25,18,11,70,52,32,30.40,30.27,5,1,10,0.00
2013-12-27,51,38,27,21,19,16,76,48,27,30.48,30.38,4,1,8,0.00
2013-12-28,56,41,29,38,25,21,92,56,28,30.41,30.19,6,1,10,0.12
2013-12-29,57,45,40,49,41,38,98,87,62,30.18,29.71,10,2,14,0.68
2013-12-30,47,42,37,39,34,30,84,74,65,30.15,29.92,4,1,10,0.00
2013-12-31,48,39,32,31,23,17,85,57,29,30.37,30.13,11,2,18,0.00
2014-1-1,47,37,28,28,24,18,82,62,45,30.40,30.15,3,0,6,0.00
2014-1-2,41,38,34,38,32,23,96,81,65,30.14,29.64,8,1,15,0.25